Tampico, Montana
Current Conditions -  °F | °C
As of 8:53 AM on Tuesday 21 Oct 2014 (Local Time) from KGGW Reporting Station
Clear Clear  
Wind Chill: 50°   Ceiling: Unl
Heat Index: 50°   Visibility: 10mi
Dew Point: 40°   Wind: 15mph
Humidity: 68%   Direction: 110°ESE
Pressure: 29.66"   Gusts: NA
Location:  48.3775°N, 106.613°W
Report Text: KGGW 211453Z AUTO 11013KT 10SM CLR 10/04 A2966 RMK AO2 SLP049 T01000044 56007
Loading
Personal Weather Stations






























Interactive Weather Map
Tropical Storm Tracking
New forecast layout! Learn more

10-Day Weather Forecast

Advertisements
Track Severe Weather on mobile